createdAt,value
2018-04-17T00:00:53.639Z,32.53
2018-04-17T00:03:21.111Z,30.73
2018-04-17T00:05:48.668Z,33.20
2018-04-17T00:08:16.151Z,33.07
2018-04-17T00:10:44.455Z,34.20
2018-04-17T00:13:11.961Z,33.50
2018-04-17T00:15:39.452Z,31.40
2018-04-17T00:18:06.932Z,32.93
2018-04-17T00:20:34.443Z,32.50
2018-04-17T00:23:02.783Z,31.13
2018-04-17T00:25:30.263Z,31.40
2018-04-17T00:27:57.723Z,32.53
2018-04-17T00:30:25.202Z,28.30
2018-04-17T00:32:52.684Z,30.53
2018-04-17T00:35:20.910Z,30.50
2018-04-17T00:37:48.575Z,32.37
2018-04-17T00:40:16.257Z,30.40
2018-04-17T00:42:44.510Z,31.90
2018-04-17T00:45:12.025Z,29.10
2018-04-17T00:47:40.229Z,28.80
2018-04-17T00:50:07.702Z,31.00
2018-04-17T00:52:35.192Z,31.60
2018-04-17T00:55:02.668Z,31.27
2018-04-17T00:57:30.136Z,33.13
2018-04-17T00:59:57.611Z,31.77
2018-04-17T01:02:25.100Z,31.47
2018-04-17T01:04:53.342Z,31.60
2018-04-17T01:07:20.817Z,32.73
2018-04-17T01:09:49.899Z,33.80
2018-04-17T01:12:17.393Z,33.93
2018-04-17T01:14:45.636Z,33.90
2018-04-17T01:17:13.217Z,33.27
2018-04-17T01:19:41.481Z,32.20
2018-04-17T01:22:09.729Z,32.50
2018-04-17T01:24:37.200Z,35.47
2018-04-17T01:27:04.685Z,35.07
2018-04-17T01:29:32.921Z,33.17
2018-04-17T01:32:00.392Z,32.65
2018-04-17T01:34:27.903Z,33.77
2018-04-17T01:36:55.407Z,34.00
2018-04-17T01:39:22.886Z,33.60
2018-04-17T01:41:51.123Z,34.67
2018-04-17T01:44:18.600Z,33.23
2018-04-17T01:46:46.151Z,33.07
2018-04-17T01:49:13.710Z,34.80
2018-04-17T01:51:41.180Z,33.30
2018-04-17T01:54:09.456Z,34.03
2018-04-17T01:56:37.723Z,32.85
2018-04-17T01:59:05.284Z,33.42
2018-04-17T02:01:32.852Z,31.77
2018-04-17T02:04:01.107Z,32.23
2018-04-17T02:06:28.594Z,31.83
2018-04-17T02:08:56.859Z,31.33
2018-04-17T02:11:24.323Z,33.57
2018-04-17T02:13:52.579Z,33.75
2018-04-17T02:16:20.059Z,32.33
2018-04-17T02:18:48.304Z,34.93
2018-04-17T02:21:15.872Z,36.40
2018-04-17T02:23:43.351Z,33.90
2018-04-17T02:26:11.599Z,34.70
2018-04-17T02:28:39.078Z,35.85
2018-04-17T02:31:07.336Z,32.83
2018-04-17T02:33:34.817Z,36.17
2018-04-17T02:36:03.068Z,34.17
2018-04-17T02:38:30.638Z,35.95
2018-04-17T02:40:58.114Z,31.87
2018-04-17T02:43:25.621Z,33.50
2018-04-17T02:45:53.118Z,34.00
2018-04-17T02:48:21.356Z,33.03
2018-04-17T02:50:48.832Z,34.47
2018-04-17T02:53:16.316Z,33.60
2018-04-17T02:55:44.564Z,33.28
2018-04-17T02:58:13.549Z,32.55
2018-04-17T03:00:41.037Z,33.63
2018-04-17T03:03:09.280Z,33.88
2018-04-17T03:05:36.747Z,36.28
2018-04-17T03:08:04.311Z,32.17
2018-04-17T03:10:31.859Z,32.95
2018-04-17T03:12:59.342Z,34.33
2018-04-17T03:15:26.839Z,32.17
2018-04-17T03:17:54.313Z,34.25
2018-04-17T03:20:21.790Z,32.95
2018-04-17T03:22:49.260Z,33.40
2018-04-17T03:25:17.523Z,30.80
2018-04-17T03:27:45.006Z,33.40
2018-04-17T03:30:13.267Z,31.90
2018-04-17T03:32:40.744Z,31.62
2018-04-17T03:35:08.272Z,33.28
2018-04-17T03:37:35.747Z,32.80
2018-04-17T03:40:03.990Z,32.85
2018-04-17T03:42:31.473Z,34.60
2018-04-17T03:44:58.956Z,32.40
2018-04-17T03:47:26.536Z,32.75
2018-04-17T03:49:54.052Z,32.50
2018-04-17T03:52:22.310Z,33.65
2018-04-17T03:54:49.782Z,34.20
2018-04-17T03:57:18.028Z,34.75
2018-04-17T03:59:47.114Z,30.42
2018-04-17T04:02:14.588Z,33.60
2018-04-17T04:04:42.073Z,35.15
2018-04-17T04:07:09.568Z,32.22
2018-04-17T04:09:37.065Z,34.72
2018-04-17T04:12:04.548Z,34.13
2018-04-17T04:14:32.016Z,34.67
2018-04-17T04:17:11.336Z,33.80
2018-04-17T04:19:51.572Z,34.53
2018-04-17T04:22:30.923Z,35.10
2018-04-17T04:25:16.233Z,33.55
2018-04-17T04:27:43.708Z,38.67
2018-04-17T04:30:11.193Z,36.15
2018-04-17T04:32:38.676Z,36.53
2018-04-17T04:35:06.927Z,36.45
2018-04-17T04:37:34.415Z,34.95
2018-04-17T04:40:01.879Z,37.75
2018-04-17T04:42:29.391Z,38.20
2018-04-17T04:44:56.966Z,35.72
2018-04-17T04:47:24.451Z,36.85
2018-04-17T04:49:51.922Z,37.10
2018-04-17T04:52:19.431Z,39.78
2018-04-17T04:54:46.909Z,37.70
2018-04-17T04:57:14.415Z,36.38
2018-04-17T04:59:41.886Z,40.70
2018-04-17T05:02:09.469Z,39.17
2018-04-17T05:04:37.737Z,38.13
2018-04-17T05:07:05.227Z,38.05
2018-04-17T05:09:32.708Z,38.92
2018-04-17T05:12:00.208Z,36.47
2018-04-17T05:14:27.675Z,38.17
2018-04-17T05:16:55.926Z,37.25
2018-04-17T05:19:23.403Z,36.83
2018-04-17T05:21:51.731Z,39.60
2018-04-17T05:24:19.935Z,38.15
2018-04-17T05:26:47.425Z,38.20
2018-04-17T05:29:15.796Z,39.30
2018-04-17T05:31:44.039Z,39.50
2018-04-17T05:34:11.531Z,38.88
2018-04-17T05:36:39.847Z,38.38
2018-04-17T05:39:07.320Z,38.55
2018-04-17T05:41:34.833Z,37.38
2018-04-17T05:44:02.359Z,40.63
2018-04-17T05:46:29.838Z,39.42
2018-04-17T05:48:58.088Z,37.88
2018-04-17T05:51:25.568Z,38.72
2018-04-17T05:53:53.961Z,37.83
2018-04-17T05:56:21.435Z,38.20
2018-04-17T05:58:48.936Z,39.95
2018-04-17T06:01:16.428Z,40.05
2018-04-17T06:03:43.916Z,40.55
2018-04-17T06:06:11.409Z,41.88
2018-04-17T06:08:38.892Z,42.50
2018-04-17T06:11:07.154Z,41.47
2018-04-17T06:13:34.639Z,41.33
2018-04-17T06:16:02.105Z,40.42
2018-04-17T06:18:29.584Z,38.67
2018-04-17T06:20:57.063Z,40.30
2018-04-17T06:23:24.535Z,38.30
2018-04-17T06:25:52.005Z,40.30
2018-04-17T06:28:20.372Z,40.47
2018-04-17T06:30:47.840Z,40.30
2018-04-17T06:33:16.067Z,37.40
2018-04-17T06:35:43.564Z,37.30
2018-04-17T06:38:11.042Z,34.67
2018-04-17T06:40:39.302Z,35.73
2018-04-17T06:43:07.538Z,32.97
2018-04-17T06:45:35.027Z,33.80
2018-04-17T06:48:02.491Z,34.80
2018-04-17T06:50:30.719Z,34.27
2018-04-17T06:52:58.178Z,34.13
2018-04-17T06:55:25.654Z,35.53
2018-04-17T06:57:53.131Z,35.47
2018-04-17T07:00:20.623Z,33.43
2018-04-17T07:02:48.104Z,33.83
2018-04-17T07:05:15.661Z,32.43
2018-04-17T07:07:43.878Z,31.60
2018-04-17T07:10:11.422Z,33.93
2018-04-17T07:12:39.017Z,30.93
2018-04-17T07:15:07.252Z,30.57
2018-04-17T07:17:34.736Z,30.70
2018-04-17T07:20:02.973Z,30.87
2018-04-17T07:22:30.451Z,29.87
2018-04-17T07:24:57.964Z,29.43
2018-04-17T07:27:25.441Z,27.00
2018-04-17T07:29:52.929Z,26.20
2018-04-17T07:32:20.445Z,27.53
2018-04-17T07:34:47.942Z,25.90
2018-04-17T07:37:15.411Z,28.20
2018-04-17T07:39:42.960Z,23.63
2018-04-17T07:42:10.519Z,24.67
2018-04-17T07:44:38.080Z,20.10
2018-04-17T07:47:17.405Z,21.83
2018-04-17T07:49:45.681Z,17.50
2018-04-17T07:52:13.240Z,17.90
2018-04-17T07:54:40.698Z,18.87
2018-04-17T07:57:08.187Z,16.40
2018-04-17T07:59:36.421Z,17.47
2018-04-17T08:02:03.893Z,16.20
2018-04-17T08:04:31.456Z,17.53
2018-04-17T08:06:59.060Z,15.80
2018-04-17T08:09:26.523Z,13.90
2018-04-17T08:11:54.046Z,11.33
2018-04-17T08:14:22.247Z,9.20
2018-04-17T08:16:49.739Z,9.23
2018-04-17T08:19:17.268Z,9.57
2018-04-17T08:21:44.755Z,10.40
2018-04-17T08:24:12.233Z,10.17
2018-04-17T08:26:39.710Z,8.23
2018-04-17T08:29:07.948Z,8.93
2018-04-17T08:31:35.444Z,9.67
2018-04-17T08:34:03.679Z,8.67
2018-04-17T08:36:31.239Z,9.10
2018-04-17T08:38:58.799Z,8.10
2018-04-17T08:41:26.364Z,7.40
2018-04-17T08:43:53.883Z,6.43
2018-04-17T08:46:21.352Z,6.10
2018-04-17T08:48:48.835Z,5.67
2018-04-17T08:51:16.395Z,5.27
2018-04-17T08:53:44.031Z,5.87
2018-04-17T08:56:11.605Z,4.23
2018-04-17T08:58:39.174Z,2.93
2018-04-17T09:01:06.734Z,2.60
2018-04-17T09:03:34.296Z,2.53
2018-04-17T09:06:02.341Z,3.03
2018-04-17T09:08:29.829Z,2.87
2018-04-17T09:10:57.858Z,3.43
2018-04-17T09:13:25.332Z,3.70
2018-04-17T09:15:52.910Z,3.70
2018-04-17T09:18:20.457Z,4.57
2018-04-17T09:20:49.568Z,4.30
2018-04-17T09:23:17.741Z,4.87
2018-04-17T09:25:45.379Z,3.80
2018-04-17T09:28:13.156Z,3.50
2018-04-17T09:30:40.619Z,3.50
2018-04-17T09:33:09.634Z,3.80
2018-04-17T09:35:37.077Z,4.23
2018-04-17T09:38:04.535Z,3.40
2018-04-17T09:40:32.772Z,3.17
2018-04-17T09:43:00.254Z,3.53
2018-04-17T09:45:27.817Z,3.60
2018-04-17T09:47:55.275Z,3.40
2018-04-17T09:50:22.734Z,3.83
2018-04-17T09:52:50.209Z,3.30
2018-04-17T09:55:18.559Z,3.00
2018-04-17T09:57:46.029Z,3.73
2018-04-17T10:00:13.493Z,3.50
2018-04-17T10:02:41.723Z,3.77
2018-04-17T10:05:09.265Z,3.63
2018-04-17T10:07:36.726Z,3.40
2018-04-17T10:10:04.183Z,3.33
2018-04-17T10:12:31.642Z,3.20
2018-04-17T10:14:59.134Z,3.00
2018-04-17T10:17:26.658Z,2.97
2018-04-17T10:19:54.866Z,3.50
2018-04-17T10:22:22.328Z,3.33
2018-04-17T10:24:49.804Z,2.90
2018-04-17T10:27:18.050Z,3.10
2018-04-17T10:29:45.529Z,3.33
2018-04-17T10:32:13.759Z,3.10
2018-04-17T10:34:41.216Z,2.80
2018-04-17T10:37:08.664Z,2.80
2018-04-17T10:39:36.127Z,3.27
2018-04-17T10:42:03.583Z,3.43
2018-04-17T10:44:31.067Z,4.03
2018-04-17T10:46:59.299Z,3.87
2018-04-17T10:49:26.785Z,3.77
2018-04-17T10:51:54.248Z,3.13
2018-04-17T10:54:21.703Z,4.13
2018-04-17T10:56:49.446Z,2.50
2018-04-17T10:59:17.039Z,4.20
2018-04-17T11:01:44.498Z,2.90
2018-04-17T11:04:11.963Z,3.97
2018-04-17T11:06:40.231Z,3.50
2018-04-17T11:09:07.708Z,3.80
2018-04-17T11:11:35.934Z,3.70
2018-04-17T11:14:03.516Z,3.60
2018-04-17T11:16:31.744Z,4.27
2018-04-17T11:18:59.212Z,4.60
2018-04-17T11:21:26.712Z,4.13
2018-04-17T11:23:54.265Z,4.00
2018-04-17T11:26:21.723Z,4.17
2018-04-17T11:28:49.268Z,4.23
2018-04-17T11:31:16.789Z,4.00
2018-04-17T11:33:44.244Z,4.07
2018-04-17T11:36:11.743Z,4.03
2018-04-17T11:38:39.215Z,3.63
2018-04-17T11:41:06.685Z,5.20
2018-04-17T11:43:34.932Z,3.70
2018-04-17T11:46:02.508Z,3.87
2018-04-17T11:48:30.755Z,3.80
2018-04-17T11:50:58.220Z,3.90
2018-04-17T11:53:25.685Z,4.90
2018-04-17T11:55:53.915Z,4.90
2018-04-17T11:58:21.380Z,4.97
2018-04-17T12:00:48.839Z,4.30
2018-04-17T12:03:16.299Z,4.73
2018-04-17T12:05:43.755Z,4.10
2018-04-17T12:08:11.234Z,3.83
2018-04-17T12:10:38.706Z,4.17
2018-04-17T12:13:06.216Z,3.80
2018-04-17T12:15:33.715Z,4.00
2018-04-17T12:18:01.268Z,3.63
2018-04-17T12:20:29.518Z,3.13
2018-04-17T12:22:56.979Z,4.10
2018-04-17T12:25:24.455Z,3.33
2018-04-17T12:27:52.032Z,3.10
2018-04-17T12:30:19.517Z,3.07
2018-04-17T12:32:46.979Z,3.60
2018-04-17T12:35:14.448Z,3.70
2018-04-17T12:37:41.958Z,3.07
2018-04-17T12:40:09.507Z,3.73
2018-04-17T12:42:36.974Z,3.63
2018-04-17T12:45:04.445Z,3.20
2018-04-17T12:47:32.693Z,4.17
2018-04-17T12:50:00.156Z,3.43
2018-04-17T12:52:27.712Z,3.27
2018-04-17T12:54:55.185Z,3.33
2018-04-17T12:57:23.422Z,2.77
2018-04-17T12:59:50.913Z,4.43
2018-04-17T13:02:18.369Z,3.60
2018-04-17T13:04:46.605Z,3.23
2018-04-17T13:07:14.055Z,3.37
2018-04-17T13:09:41.556Z,3.13
2018-04-17T13:12:09.023Z,3.70
2018-04-17T13:14:37.257Z,3.63
2018-04-17T13:17:04.715Z,3.20
2018-04-17T13:19:32.299Z,3.10
2018-04-17T13:21:59.907Z,3.20
2018-04-17T13:24:27.370Z,2.70
2018-04-17T13:26:54.843Z,3.70
2018-04-17T13:29:22.403Z,3.20
2018-04-17T13:31:49.862Z,2.70
2018-04-17T13:34:17.339Z,2.80
2018-04-17T13:36:44.798Z,3.60
2018-04-17T13:39:12.300Z,2.93
2018-04-17T13:41:39.807Z,3.60
2018-04-17T13:44:07.287Z,3.30
2018-04-17T13:46:35.516Z,3.10
2018-04-17T13:49:02.976Z,2.67
2018-04-17T13:51:30.446Z,3.60
2018-04-17T13:53:57.960Z,2.83
2018-04-17T13:56:25.428Z,3.63
2018-04-17T13:58:52.931Z,3.27
2018-04-17T14:01:20.401Z,3.40
2018-04-17T14:03:48.647Z,3.43
2018-04-17T14:06:16.324Z,3.10
2018-04-17T14:08:43.882Z,3.47
2018-04-17T14:11:11.380Z,3.90
2018-04-17T14:13:38.844Z,3.00
2018-04-17T14:16:06.332Z,2.83
2018-04-17T14:18:33.779Z,3.40
2018-04-17T14:21:01.253Z,2.60
2018-04-17T14:23:28.723Z,2.97
2018-04-17T14:25:56.318Z,2.40
2018-04-17T14:28:23.788Z,3.53
2018-04-17T14:30:51.279Z,2.50
2018-04-17T14:33:18.735Z,3.20
2018-04-17T14:35:46.368Z,2.87
2018-04-17T14:38:13.859Z,2.70
2018-04-17T14:40:41.316Z,2.90
2018-04-17T14:43:08.830Z,2.27
2018-04-17T14:45:36.248Z,3.23
2018-04-17T14:48:04.517Z,2.63
2018-04-17T14:50:32.008Z,3.13
2018-04-17T14:52:59.477Z,2.70
2018-04-17T14:55:26.994Z,2.57
2018-04-17T14:57:54.639Z,3.00
2018-04-17T15:00:22.233Z,2.37
2018-04-17T15:02:50.468Z,3.30
2018-04-17T15:05:17.932Z,3.17
2018-04-17T15:07:45.387Z,3.00
2018-04-17T15:10:12.890Z,2.10
2018-04-17T15:12:40.420Z,3.10
2018-04-17T15:15:07.890Z,2.40
2018-04-17T15:17:36.127Z,3.23
2018-04-17T15:20:03.596Z,2.40
2018-04-17T15:22:31.061Z,3.37
2018-04-17T15:24:58.541Z,2.60
2018-04-17T15:27:26.769Z,2.53
2018-04-17T15:29:54.231Z,3.00
2018-04-17T15:32:21.693Z,2.87
2018-04-17T15:34:49.202Z,3.17
2018-04-17T15:37:16.721Z,2.27
2018-04-17T15:39:44.175Z,2.90
2018-04-17T15:42:11.740Z,2.57
2018-04-17T15:44:39.969Z,2.50
2018-04-17T15:47:07.463Z,2.53
2018-04-17T15:49:35.023Z,2.60
2018-04-17T15:52:02.506Z,2.53
2018-04-17T15:54:30.734Z,2.43
2018-04-17T15:56:58.200Z,2.90
2018-04-17T15:59:25.732Z,2.70
2018-04-17T16:01:53.232Z,3.10
2018-04-17T16:04:20.678Z,2.90
2018-04-17T16:06:48.908Z,2.30
2018-04-17T16:09:16.371Z,2.90
2018-04-17T16:11:44.024Z,2.97
2018-04-17T16:14:11.487Z,3.33
2018-04-17T16:16:38.943Z,2.40
2018-04-17T16:19:06.501Z,2.57
2018-04-17T16:21:33.959Z,2.87
2018-04-17T16:24:01.457Z,2.70
2018-04-17T16:26:28.923Z,2.20
2018-04-17T16:28:56.480Z,2.50
2018-04-17T16:31:23.939Z,2.40
2018-04-17T16:33:51.500Z,2.87
2018-04-17T16:36:18.964Z,2.57
2018-04-17T16:38:47.191Z,2.60
2018-04-17T16:41:14.659Z,2.80
2018-04-17T16:43:42.117Z,2.40
2018-04-17T16:46:09.583Z,2.87
2018-04-17T16:48:37.050Z,2.53
2018-04-17T16:51:04.617Z,2.37
2018-04-17T16:53:32.111Z,3.13
2018-04-17T16:55:59.580Z,2.30
2018-04-17T16:58:27.035Z,2.47
2018-04-17T17:00:54.516Z,2.13
2018-04-17T17:03:21.983Z,3.10
2018-04-17T17:05:49.454Z,2.47
2018-04-17T17:08:16.998Z,2.47
2018-04-17T17:10:44.460Z,2.50
2018-04-17T17:13:12.031Z,2.27
2018-04-17T17:15:39.541Z,2.33
2018-04-17T17:18:07.048Z,2.70
2018-04-17T17:20:34.512Z,2.27
2018-04-17T17:23:02.758Z,2.47
2018-04-17T17:25:30.350Z,3.40
2018-04-17T17:27:58.618Z,2.97
2018-04-17T17:30:26.172Z,3.03
2018-04-17T17:32:54.407Z,2.70
2018-04-17T17:35:21.868Z,3.10
2018-04-17T17:37:49.348Z,2.53
2018-04-17T17:40:16.908Z,2.77
2018-04-17T17:42:44.385Z,2.50
2018-04-17T17:45:11.838Z,3.07
2018-04-17T17:47:39.309Z,2.63
2018-04-17T17:50:07.557Z,3.27
2018-04-17T17:52:35.121Z,2.87
2018-04-17T17:55:02.675Z,2.77
2018-04-17T17:57:30.160Z,2.73
2018-04-17T17:59:57.584Z,2.50
2018-04-17T18:02:25.065Z,3.03
2018-04-17T18:04:53.287Z,2.70
2018-04-17T18:07:20.762Z,2.93
2018-04-17T18:09:48.220Z,2.80
2018-04-17T18:12:15.711Z,2.00
2018-04-17T18:14:43.940Z,2.47
2018-04-17T18:17:11.413Z,2.10
2018-04-17T18:19:38.914Z,2.70
2018-04-17T18:22:06.359Z,2.20
2018-04-17T18:24:34.667Z,2.70
2018-04-17T18:27:02.140Z,2.40
2018-04-17T18:29:29.607Z,3.00
2018-04-17T18:31:57.070Z,3.03
2018-04-17T18:34:24.642Z,2.80
2018-04-17T18:36:52.099Z,3.00
2018-04-17T18:39:19.680Z,3.23
2018-04-17T18:41:47.948Z,3.23
2018-04-17T18:44:16.189Z,3.60
2018-04-17T18:46:43.670Z,2.70
2018-04-17T18:49:11.358Z,2.80
2018-04-17T18:51:39.807Z,3.17
2018-04-17T18:54:07.494Z,2.63
2018-04-17T18:56:35.820Z,3.20
2018-04-17T18:59:03.320Z,3.97
2018-04-17T19:01:31.633Z,3.33
2018-04-17T19:03:59.145Z,2.97
2018-04-17T19:06:26.624Z,3.30
2018-04-17T19:08:54.847Z,3.87
2018-04-17T19:11:22.321Z,4.20
2018-04-17T19:13:51.307Z,3.43
2018-04-17T19:16:18.875Z,3.97
2018-04-17T19:18:47.125Z,3.40
2018-04-17T19:21:14.644Z,4.23
2018-04-17T19:23:42.855Z,3.37
2018-04-17T19:26:10.315Z,3.70
2018-04-17T19:28:37.802Z,4.27
2018-04-17T19:31:06.038Z,3.77
2018-04-17T19:33:33.509Z,3.73
2018-04-17T19:36:00.996Z,3.00
2018-04-17T19:38:28.558Z,3.83
2018-04-17T19:40:56.064Z,3.93
2018-04-17T19:43:23.536Z,3.93
2018-04-17T19:45:51.026Z,3.73
2018-04-17T19:48:18.586Z,3.90
2018-04-17T19:50:46.146Z,3.93
2018-04-17T19:53:13.603Z,4.27
2018-04-17T19:55:41.062Z,4.07
2018-04-17T19:58:09.295Z,4.90
2018-04-17T20:00:36.754Z,3.43
2018-04-17T20:03:04.232Z,4.50
2018-04-17T20:05:31.691Z,4.70
2018-04-17T20:07:59.179Z,5.37
2018-04-17T20:10:26.671Z,5.83
2018-04-17T20:12:54.181Z,5.00
2018-04-17T20:15:22.424Z,5.43
2018-04-17T20:17:49.970Z,4.73
2018-04-17T20:20:17.433Z,5.23
2018-04-17T20:22:44.907Z,5.20
2018-04-17T20:25:12.388Z,5.20
2018-04-17T20:27:40.626Z,5.53
2018-04-17T20:30:08.156Z,5.27
2018-04-17T20:32:35.620Z,5.80
2018-04-17T20:35:03.103Z,5.47
2018-04-17T20:37:30.580Z,4.87
2018-04-17T20:39:58.803Z,6.00
2018-04-17T20:42:26.288Z,5.57
2018-04-17T20:44:53.771Z,5.63
2018-04-17T20:47:22.048Z,6.20
2018-04-17T20:49:50.325Z,5.97
2018-04-17T20:52:17.880Z,6.03
2018-04-17T20:54:45.349Z,6.27
2018-04-17T20:57:13.590Z,7.27
2018-04-17T20:59:41.060Z,5.90
2018-04-17T21:02:08.554Z,5.90
2018-04-17T21:04:36.016Z,6.77
2018-04-17T21:07:03.500Z,7.17
2018-04-17T21:09:30.982Z,6.33
2018-04-17T21:11:58.488Z,6.90
2018-04-17T21:14:25.960Z,5.90
2018-04-17T21:16:53.437Z,7.30
2018-04-17T21:19:20.906Z,7.13
2018-04-17T21:21:48.400Z,8.00
2018-04-17T21:24:16.652Z,6.80
2018-04-17T21:26:44.132Z,6.70
2018-04-17T21:29:12.374Z,7.20
2018-04-17T21:31:39.854Z,6.30
2018-04-17T21:34:08.117Z,7.67
2018-04-17T21:36:36.413Z,7.60
2018-04-17T21:39:04.645Z,7.70
2018-04-17T21:41:32.174Z,7.70
2018-04-17T21:43:59.603Z,7.20
2018-04-17T21:46:27.852Z,7.73
2018-04-17T21:48:55.323Z,7.60
2018-04-17T21:51:23.575Z,8.53
2018-04-17T21:53:51.065Z,8.33
2018-04-17T21:56:19.315Z,8.53
2018-04-17T21:58:46.787Z,8.13
2018-04-17T22:01:15.054Z,8.37
2018-04-17T22:03:42.612Z,9.07
2018-04-17T22:06:10.884Z,9.40
2018-04-17T22:08:38.348Z,9.17
2018-04-17T22:11:05.824Z,9.03
2018-04-17T22:13:33.318Z,10.10
2018-04-17T22:16:00.837Z,8.30
2018-04-17T22:18:28.374Z,9.20
2018-04-17T22:20:55.838Z,8.70
2018-04-17T22:23:24.091Z,10.00
2018-04-17T22:25:51.559Z,8.63
2018-04-17T22:28:19.053Z,9.53
2018-04-17T22:30:46.542Z,9.00
2018-04-17T22:33:14.020Z,9.97
2018-04-17T22:35:41.498Z,8.43
2018-04-17T22:38:09.732Z,7.53
2018-04-17T22:40:37.202Z,8.13
2018-04-17T22:43:04.660Z,7.97
2018-04-17T22:45:32.197Z,9.13
2018-04-17T22:48:00.386Z,9.30
2018-04-17T22:50:27.871Z,7.87
2018-04-17T22:52:56.105Z,7.30
2018-04-17T22:55:23.588Z,8.67
2018-04-17T22:57:51.108Z,7.97
2018-04-17T23:00:18.573Z,9.03
2018-04-17T23:02:46.047Z,8.67
2018-04-17T23:05:13.551Z,7.73
2018-04-17T23:07:41.779Z,7.50
2018-04-17T23:10:09.255Z,8.40
2018-04-17T23:12:36.808Z,8.10
2018-04-17T23:15:04.367Z,7.13
2018-04-17T23:17:31.927Z,7.40
2018-04-17T23:19:59.417Z,8.03
2018-04-17T23:22:27.642Z,7.47
2018-04-17T23:24:55.228Z,7.40
2018-04-17T23:27:22.780Z,8.13
2018-04-17T23:29:51.756Z,7.73
2018-04-17T23:32:19.240Z,8.40
2018-04-17T23:34:46.768Z,8.00
2018-04-17T23:37:14.236Z,8.17
2018-04-17T23:39:41.711Z,7.60
2018-04-17T23:42:09.195Z,8.43
2018-04-17T23:44:36.667Z,7.07
2018-04-17T23:47:04.151Z,7.80
2018-04-17T23:49:31.615Z,8.00
2018-04-17T23:51:59.176Z,6.90
2018-04-17T23:54:26.639Z,7.83
2018-04-17T23:56:54.157Z,7.33
2018-04-17T23:59:21.615Z,7.80
